sensor_id;sensor_type;location;lat;lon;timestamp;temperature;humidity
21744;DHT22;11034;48.556;9.342;2023-07-22T00:00:28;15.10;99.90
21744;DHT22;11034;48.556;9.342;2023-07-22T00:02:56;15.10;99.90
21744;DHT22;11034;48.556;9.342;2023-07-22T00:05:26;15.10;99.90
21744;DHT22;11034;48.556;9.342;2023-07-22T00:07:55;15.20;99.90
21744;DHT22;11034;48.556;9.342;2023-07-22T00:10:23;15.10;99.90
21744;DHT22;11034;48.556;9.342;2023-07-22T00:12:51;15.00;99.90
21744;DHT22;11034;48.556;9.342;2023-07-22T00:15:19;15.00;99.90
21744;DHT22;11034;48.556;9.342;2023-07-22T00:17:51;15.00;99.90
21744;DHT22;11034;48.556;9.342;2023-07-22T00:20:19;15.00;99.90
21744;DHT22;11034;48.556;9.342;2023-07-22T00:22:49;15.00;99.90
21744;DHT22;11034;48.556;9.342;2023-07-22T00:25:17;14.90;99.90
21744;DHT22;11034;48.556;9.342;2023-07-22T00:27:45;14.90;99.90
21744;DHT22;11034;48.556;9.342;2023-07-22T00:30:18;14.90;99.90
21744;DHT22;11034;48.556;9.342;2023-07-22T00:32:46;14.90;99.90
21744;DHT22;11034;48.556;9.342;2023-07-22T00:35:14;14.90;99.90
21744;DHT22;11034;48.556;9.342;2023-07-22T00:37:42;15.00;99.90
21744;DHT22;11034;48.556;9.342;2023-07-22T00:40:12;15.00;99.90
21744;DHT22;11034;48.556;9.342;2023-07-22T00:42:40;15.00;99.90
21744;DHT22;11034;48.556;9.342;2023-07-22T00:45:08;14.90;99.90
21744;DHT22;11034;48.556;9.342;2023-07-22T00:47:37;14.90;99.90
21744;DHT22;11034;48.556;9.342;2023-07-22T00:50:06;14.90;99.90
21744;DHT22;11034;48.556;9.342;2023-07-22T00:52:35;14.90;99.90
21744;DHT22;11034;48.556;9.342;2023-07-22T00:55:04;14.90;99.90
21744;DHT22;11034;48.556;9.342;2023-07-22T00:57:36;14.90;99.90
21744;DHT22;11034;48.556;9.342;2023-07-22T01:00:05;14.90;99.90
21744;DHT22;11034;48.556;9.342;2023-07-22T01:02:38;14.80;99.90
21744;DHT22;11034;48.556;9.342;2023-07-22T01:05:07;14.80;99.90
21744;DHT22;11034;48.556;9.342;2023-07-22T01:07:37;14.70;99.90
21744;DHT22;11034;48.556;9.342;2023-07-22T01:10:06;14.70;99.90
21744;DHT22;11034;48.556;9.342;2023-07-22T01:12:36;14.70;99.90
21744;DHT22;11034;48.556;9.342;2023-07-22T01:15:06;14.70;99.90
21744;DHT22;11034;48.556;9.342;2023-07-22T01:17:36;14.80;99.90
21744;DHT22;11034;48.556;9.342;2023-07-22T01:20:06;14.80;99.90
21744;DHT22;11034;48.556;9.342;2023-07-22T01:22:34;14.80;99.90
21744;DHT22;11034;48.556;9.342;2023-07-22T01:25:06;14.80;99.90
21744;DHT22;11034;48.556;9.342;2023-07-22T01:27:35;14.90;99.90
21744;DHT22;11034;48.556;9.342;2023-07-22T01:30:04;14.80;99.90
21744;DHT22;11034;48.556;9.342;2023-07-22T01:32:33;14.80;99.90
21744;DHT22;11034;48.556;9.342;2023-07-22T01:35:01;14.80;99.90
21744;DHT22;11034;48.556;9.342;2023-07-22T01:37:29;14.80;99.90
21744;DHT22;11034;48.556;9.342;2023-07-22T01:40:01;14.80;99.90
21744;DHT22;11034;48.556;9.342;2023-07-22T01:42:39;14.80;99.90
21744;DHT22;11034;48.556;9.342;2023-07-22T01:45:08;14.80;99.90
21744;DHT22;11034;48.556;9.342;2023-07-22T01:47:38;14.70;99.90
21744;DHT22;11034;48.556;9.342;2023-07-22T01:50:07;14.70;99.90
21744;DHT22;11034;48.556;9.342;2023-07-22T01:52:36;14.70;99.90
21744;DHT22;11034;48.556;9.342;2023-07-22T01:55:05;14.70;99.90
21744;DHT22;11034;48.556;9.342;2023-07-22T01:57:39;14.60;99.90
21744;DHT22;11034;48.556;9.342;2023-07-22T02:00:08;14.50;99.90
21744;DHT22;11034;48.556;9.342;2023-07-22T02:02:38;14.60;99.90
21744;DHT22;11034;48.556;9.342;2023-07-22T02:05:07;14.50;99.90
21744;DHT22;11034;48.556;9.342;2023-07-22T02:07:35;14.60;99.90
21744;DHT22;11034;48.556;9.342;2023-07-22T02:10:04;14.60;99.90
21744;DHT22;11034;48.556;9.342;2023-07-22T02:12:33;14.60;99.90
21744;DHT22;11034;48.556;9.342;2023-07-22T02:15:03;14.70;99.90
21744;DHT22;11034;48.556;9.342;2023-07-22T02:17:31;14.70;99.90
21744;DHT22;11034;48.556;9.342;2023-07-22T02:20:00;14.70;99.90
21744;DHT22;11034;48.556;9.342;2023-07-22T02:22:29;14.70;99.90
21744;DHT22;11034;48.556;9.342;2023-07-22T02:24:57;14.70;99.90
21744;DHT22;11034;48.556;9.342;2023-07-22T02:27:25;14.60;99.90
21744;DHT22;11034;48.556;9.342;2023-07-22T02:29:53;14.60;99.90
21744;DHT22;11034;48.556;9.342;2023-07-22T02:32:23;14.70;99.90
21744;DHT22;11034;48.556;9.342;2023-07-22T02:34:51;14.70;99.90
21744;DHT22;11034;48.556;9.342;2023-07-22T02:37:19;14.70;99.90
21744;DHT22;11034;48.556;9.342;2023-07-22T02:39:47;14.70;99.90
21744;DHT22;11034;48.556;9.342;2023-07-22T02:42:15;14.70;99.90
21744;DHT22;11034;48.556;9.342;2023-07-22T02:44:43;14.70;99.90
21744;DHT22;11034;48.556;9.342;2023-07-22T02:47:11;14.70;99.90
21744;DHT22;11034;48.556;9.342;2023-07-22T02:49:41;14.70;99.90
21744;DHT22;11034;48.556;9.342;2023-07-22T02:52:09;14.70;99.90
21744;DHT22;11034;48.556;9.342;2023-07-22T02:54:39;14.60;99.90
21744;DHT22;11034;48.556;9.342;2023-07-22T02:57:08;14.60;99.90
21744;DHT22;11034;48.556;9.342;2023-07-22T02:59:36;14.60;99.90
21744;DHT22;11034;48.556;9.342;2023-07-22T03:02:05;14.70;99.90
21744;DHT22;11034;48.556;9.342;2023-07-22T03:04:33;14.70;99.90
21744;DHT22;11034;48.556;9.342;2023-07-22T03:07:02;14.70;99.90
21744;DHT22;11034;48.556;9.342;2023-07-22T03:09:33;14.70;99.90
21744;DHT22;11034;48.556;9.342;2023-07-22T03:12:01;14.70;99.90
21744;DHT22;11034;48.556;9.342;2023-07-22T03:14:30;14.70;99.90
21744;DHT22;11034;48.556;9.342;2023-07-22T03:17:04;14.80;99.90
21744;DHT22;11034;48.556;9.342;2023-07-22T03:19:32;14.80;99.90
21744;DHT22;11034;48.556;9.342;2023-07-22T03:22:02;14.80;99.90
21744;DHT22;11034;48.556;9.342;2023-07-22T03:24:30;14.80;99.90
21744;DHT22;11034;48.556;9.342;2023-07-22T03:26:58;14.70;99.90
21744;DHT22;11034;48.556;9.342;2023-07-22T03:29:27;14.70;99.90
21744;DHT22;11034;48.556;9.342;2023-07-22T03:31:55;14.70;99.90
21744;DHT22;11034;48.556;9.342;2023-07-22T03:34:24;14.70;99.90
21744;DHT22;11034;48.556;9.342;2023-07-22T03:36:53;14.70;99.90
21744;DHT22;11034;48.556;9.342;2023-07-22T03:39:22;14.80;99.90
21744;DHT22;11034;48.556;9.342;2023-07-22T03:41:51;14.80;99.90
21744;DHT22;11034;48.556;9.342;2023-07-22T03:44:19;14.90;99.90
21744;DHT22;11034;48.556;9.342;2023-07-22T03:46:47;14.90;99.90
21744;DHT22;11034;48.556;9.342;2023-07-22T03:49:15;14.90;99.90
21744;DHT22;11034;48.556;9.342;2023-07-22T03:51:43;14.90;99.90
21744;DHT22;11034;48.556;9.342;2023-07-22T03:54:11;14.80;99.90
21744;DHT22;11034;48.556;9.342;2023-07-22T03:56:41;14.80;99.90
21744;DHT22;11034;48.556;9.342;2023-07-22T03:59:09;14.80;99.90
21744;DHT22;11034;48.556;9.342;2023-07-22T04:01:37;14.80;99.90
21744;DHT22;11034;48.556;9.342;2023-07-22T04:04:05;14.80;99.90
21744;DHT22;11034;48.556;9.342;2023-07-22T04:06:33;14.80;99.90
21744;DHT22;11034;48.556;9.342;2023-07-22T04:09:02;15.00;99.90
21744;DHT22;11034;48.556;9.342;2023-07-22T04:11:30;15.00;99.90
21744;DHT22;11034;48.556;9.342;2023-07-22T04:13:59;15.10;99.90
21744;DHT22;11034;48.556;9.342;2023-07-22T04:16:27;15.10;99.90
21744;DHT22;11034;48.556;9.342;2023-07-22T04:18:56;15.20;99.90
21744;DHT22;11034;48.556;9.342;2023-07-22T04:21:24;15.30;99.90
21744;DHT22;11034;48.556;9.342;2023-07-22T04:23:52;15.30;99.90
21744;DHT22;11034;48.556;9.342;2023-07-22T04:26:21;15.40;99.90
21744;DHT22;11034;48.556;9.342;2023-07-22T04:28:49;15.50;99.90
21744;DHT22;11034;48.556;9.342;2023-07-22T04:31:19;15.60;99.90
21744;DHT22;11034;48.556;9.342;2023-07-22T04:33:47;15.70;99.90
21744;DHT22;11034;48.556;9.342;2023-07-22T04:36:16;15.70;99.90
21744;DHT22;11034;48.556;9.342;2023-07-22T04:38:44;15.90;99.90
21744;DHT22;11034;48.556;9.342;2023-07-22T04:41:12;16.40;99.90
21744;DHT22;11034;48.556;9.342;2023-07-22T04:43:40;17.00;99.90
21744;DHT22;11034;48.556;9.342;2023-07-22T04:46:08;17.60;99.90
21744;DHT22;11034;48.556;9.342;2023-07-22T04:48:38;18.10;99.90
21744;DHT22;11034;48.556;9.342;2023-07-22T04:51:06;18.60;99.90
21744;DHT22;11034;48.556;9.342;2023-07-22T04:53:34;19.00;99.90
21744;DHT22;11034;48.556;9.342;2023-07-22T04:56:03;19.20;99.90
21744;DHT22;11034;48.556;9.342;2023-07-22T04:58:31;19.20;99.90
21744;DHT22;11034;48.556;9.342;2023-07-22T05:00:59;19.60;99.90
21744;DHT22;11034;48.556;9.342;2023-07-22T05:03:27;20.00;99.90
21744;DHT22;11034;48.556;9.342;2023-07-22T05:06:00;20.00;99.90
21744;DHT22;11034;48.556;9.342;2023-07-22T05:08:28;20.50;99.90
21744;DHT22;11034;48.556;9.342;2023-07-22T05:10:56;20.70;99.90
21744;DHT22;11034;48.556;9.342;2023-07-22T05:13:24;21.10;99.90
21744;DHT22;11034;48.556;9.342;2023-07-22T05:15:52;21.00;99.90
21744;DHT22;11034;48.556;9.342;2023-07-22T05:18:20;21.20;99.90
21744;DHT22;11034;48.556;9.342;2023-07-22T05:20:48;21.40;99.90
21744;DHT22;11034;48.556;9.342;2023-07-22T05:23:21;22.00;99.90
21744;DHT22;11034;48.556;9.342;2023-07-22T05:25:52;22.30;99.90
21744;DHT22;11034;48.556;9.342;2023-07-22T05:28:21;22.20;99.90
21744;DHT22;11034;48.556;9.342;2023-07-22T05:30:50;22.30;99.90
21744;DHT22;11034;48.556;9.342;2023-07-22T05:33:19;22.50;99.90
21744;DHT22;11034;48.556;9.342;2023-07-22T05:35:47;22.70;99.90
21744;DHT22;11034;48.556;9.342;2023-07-22T05:38:15;22.60;99.90
21744;DHT22;11034;48.556;9.342;2023-07-22T05:40:45;23.10;99.90
21744;DHT22;11034;48.556;9.342;2023-07-22T05:43:13;23.50;99.90
21744;DHT22;11034;48.556;9.342;2023-07-22T05:45:41;23.30;99.90
21744;DHT22;11034;48.556;9.342;2023-07-22T05:48:09;24.00;99.90
21744;DHT22;11034;48.556;9.342;2023-07-22T05:50:37;24.10;99.90
21744;DHT22;11034;48.556;9.342;2023-07-22T05:53:05;24.00;99.90
21744;DHT22;11034;48.556;9.342;2023-07-22T05:55:33;24.20;99.90
21744;DHT22;11034;48.556;9.342;2023-07-22T05:58:03;24.20;99.90
21744;DHT22;11034;48.556;9.342;2023-07-22T06:00:33;24.10;99.90
21744;DHT22;11034;48.556;9.342;2023-07-22T06:03:01;24.30;99.90
21744;DHT22;11034;48.556;9.342;2023-07-22T06:05:29;24.50;99.90
21744;DHT22;11034;48.556;9.342;2023-07-22T06:08:00;25.60;99.90
21744;DHT22;11034;48.556;9.342;2023-07-22T06:10:28;26.40;99.90
21744;DHT22;11034;48.556;9.342;2023-07-22T06:12:56;27.10;99.90
21744;DHT22;11034;48.556;9.342;2023-07-22T06:15:26;26.90;99.90
21744;DHT22;11034;48.556;9.342;2023-07-22T06:17:54;27.10;99.90
21744;DHT22;11034;48.556;9.342;2023-07-22T06:20:22;26.80;99.90
21744;DHT22;11034;48.556;9.342;2023-07-22T06:22:50;26.80;99.90
21744;DHT22;11034;48.556;9.342;2023-07-22T06:25:18;27.00;99.90
21744;DHT22;11034;48.556;9.342;2023-07-22T06:27:46;27.90;99.90
21744;DHT22;11034;48.556;9.342;2023-07-22T06:30:15;27.90;99.90
21744;DHT22;11034;48.556;9.342;2023-07-22T06:32:44;28.20;99.90
21744;DHT22;11034;48.556;9.342;2023-07-22T06:35:12;28.10;99.90
21744;DHT22;11034;48.556;9.342;2023-07-22T06:37:40;28.00;99.90
21744;DHT22;11034;48.556;9.342;2023-07-22T06:40:09;27.80;99.90
21744;DHT22;11034;48.556;9.342;2023-07-22T06:42:37;28.00;99.90
21744;DHT22;11034;48.556;9.342;2023-07-22T06:45:06;28.10;99.90
21744;DHT22;11034;48.556;9.342;2023-07-22T06:47:34;28.80;99.90
21744;DHT22;11034;48.556;9.342;2023-07-22T06:50:05;28.80;99.10
21744;DHT22;11034;48.556;9.342;2023-07-22T06:52:33;28.50;99.50
21744;DHT22;11034;48.556;9.342;2023-07-22T06:55:02;28.10;99.10
21744;DHT22;11034;48.556;9.342;2023-07-22T06:57:30;27.60;99.90
21744;DHT22;11034;48.556;9.342;2023-07-22T06:59:58;26.50;99.90
21744;DHT22;11034;48.556;9.342;2023-07-22T07:02:26;26.00;99.90
21744;DHT22;11034;48.556;9.342;2023-07-22T07:04:55;26.10;99.90
21744;DHT22;11034;48.556;9.342;2023-07-22T07:07:24;25.80;99.90
21744;DHT22;11034;48.556;9.342;2023-07-22T07:09:52;25.90;99.90
21744;DHT22;11034;48.556;9.342;2023-07-22T07:12:21;25.80;99.90
21744;DHT22;11034;48.556;9.342;2023-07-22T07:14:50;25.70;99.90
21744;DHT22;11034;48.556;9.342;2023-07-22T07:17:18;25.40;99.90
21744;DHT22;11034;48.556;9.342;2023-07-22T07:19:46;25.40;99.90
21744;DHT22;11034;48.556;9.342;2023-07-22T07:22:16;25.50;99.90
21744;DHT22;11034;48.556;9.342;2023-07-22T07:24:46;25.70;99.90
21744;DHT22;11034;48.556;9.342;2023-07-22T07:27:14;25.50;99.90
21744;DHT22;11034;48.556;9.342;2023-07-22T07:29:42;25.00;99.90
21744;DHT22;11034;48.556;9.342;2023-07-22T07:32:20;25.30;99.90
21744;DHT22;11034;48.556;9.342;2023-07-22T07:34:50;25.80;99.90
21744;DHT22;11034;48.556;9.342;2023-07-22T07:37:18;25.40;99.90
21744;DHT22;11034;48.556;9.342;2023-07-22T07:39:47;25.50;99.90
21744;DHT22;11034;48.556;9.342;2023-07-22T07:42:15;25.50;99.90
21744;DHT22;11034;48.556;9.342;2023-07-22T07:44:43;25.00;99.90
21744;DHT22;11034;48.556;9.342;2023-07-22T07:47:12;25.80;99.90
21744;DHT22;11034;48.556;9.342;2023-07-22T07:49:40;25.30;99.90
21744;DHT22;11034;48.556;9.342;2023-07-22T07:52:08;26.00;99.90
21744;DHT22;11034;48.556;9.342;2023-07-22T07:54:36;26.30;99.90
21744;DHT22;11034;48.556;9.342;2023-07-22T07:57:06;25.90;99.90
21744;DHT22;11034;48.556;9.342;2023-07-22T07:59:34;25.90;99.90
21744;DHT22;11034;48.556;9.342;2023-07-22T08:02:06;26.60;99.90
21744;DHT22;11034;48.556;9.342;2023-07-22T08:04:36;26.80;99.90
21744;DHT22;11034;48.556;9.342;2023-07-22T08:07:06;26.00;99.90
21744;DHT22;11034;48.556;9.342;2023-07-22T08:09:34;26.40;99.90
21744;DHT22;11034;48.556;9.342;2023-07-22T08:12:05;26.60;99.90
21744;DHT22;11034;48.556;9.342;2023-07-22T08:14:33;26.40;99.90
21744;DHT22;11034;48.556;9.342;2023-07-22T08:17:01;26.50;99.70
21744;DHT22;11034;48.556;9.342;2023-07-22T08:19:29;26.50;99.90
21744;DHT22;11034;48.556;9.342;2023-07-22T08:21:57;26.20;99.90
21744;DHT22;11034;48.556;9.342;2023-07-22T08:24:25;26.50;99.90
21744;DHT22;11034;48.556;9.342;2023-07-22T08:26:53;26.70;99.90
21744;DHT22;11034;48.556;9.342;2023-07-22T08:29:23;26.90;98.70
21744;DHT22;11034;48.556;9.342;2023-07-22T08:31:51;26.80;98.80
21744;DHT22;11034;48.556;9.342;2023-07-22T08:34:19;26.50;99.20
21744;DHT22;11034;48.556;9.342;2023-07-22T08:36:47;26.20;99.90
21744;DHT22;11034;48.556;9.342;2023-07-22T08:39:15;26.00;99.90
21744;DHT22;11034;48.556;9.342;2023-07-22T08:41:48;25.50;99.90
21744;DHT22;11034;48.556;9.342;2023-07-22T08:44:19;25.50;99.90
21744;DHT22;11034;48.556;9.342;2023-07-22T08:46:55;25.30;99.90
21744;DHT22;11034;48.556;9.342;2023-07-22T08:49:24;24.90;99.90
21744;DHT22;11034;48.556;9.342;2023-07-22T08:51:54;24.30;99.90
21744;DHT22;11034;48.556;9.342;2023-07-22T08:54:23;24.00;99.90
21744;DHT22;11034;48.556;9.342;2023-07-22T08:56:52;23.90;99.90
21744;DHT22;11034;48.556;9.342;2023-07-22T08:59:21;23.80;99.90
21744;DHT22;11034;48.556;9.342;2023-07-22T09:01:49;23.90;99.90
21744;DHT22;11034;48.556;9.342;2023-07-22T09:04:20;23.80;99.90
21744;DHT22;11034;48.556;9.342;2023-07-22T09:06:48;23.90;99.80
21744;DHT22;11034;48.556;9.342;2023-07-22T09:09:16;23.90;99.60
21744;DHT22;11034;48.556;9.342;2023-07-22T09:11:45;23.90;99.90
21744;DHT22;11034;48.556;9.342;2023-07-22T09:14:14;24.00;99.20
21744;DHT22;11034;48.556;9.342;2023-07-22T09:17:00;24.10;98.40
21744;DHT22;11034;48.556;9.342;2023-07-22T09:19:30;23.90;99.60
21744;DHT22;11034;48.556;9.342;2023-07-22T09:21:58;24.20;99.30
21744;DHT22;11034;48.556;9.342;2023-07-22T09:24:26;24.20;98.40
21744;DHT22;11034;48.556;9.342;2023-07-22T09:26:57;24.50;98.50
21744;DHT22;11034;48.556;9.342;2023-07-22T09:29:36;24.90;97.80
21744;DHT22;11034;48.556;9.342;2023-07-22T09:32:05;24.80;97.70
21744;DHT22;11034;48.556;9.342;2023-07-22T09:34:35;24.60;98.00
21744;DHT22;11034;48.556;9.342;2023-07-22T09:37:04;24.90;96.60
21744;DHT22;11034;48.556;9.342;2023-07-22T09:39:32;24.80;97.60
21744;DHT22;11034;48.556;9.342;2023-07-22T09:42:03;24.50;97.80
21744;DHT22;11034;48.556;9.342;2023-07-22T09:44:32;24.70;98.10
21744;DHT22;11034;48.556;9.342;2023-07-22T09:47:06;25.20;97.00
21744;DHT22;11034;48.556;9.342;2023-07-22T09:49:40;25.00;96.90
21744;DHT22;11034;48.556;9.342;2023-07-22T09:52:10;24.90;98.30
21744;DHT22;11034;48.556;9.342;2023-07-22T09:54:46;25.10;98.10
21744;DHT22;11034;48.556;9.342;2023-07-22T09:57:19;25.10;96.40
21744;DHT22;11034;48.556;9.342;2023-07-22T09:59:49;25.40;96.70
21744;DHT22;11034;48.556;9.342;2023-07-22T10:02:18;25.40;96.10
21744;DHT22;11034;48.556;9.342;2023-07-22T10:04:52;25.30;96.90
21744;DHT22;11034;48.556;9.342;2023-07-22T10:07:21;25.50;95.80
21744;DHT22;11034;48.556;9.342;2023-07-22T10:09:51;26.00;96.80
21744;DHT22;11034;48.556;9.342;2023-07-22T10:12:22;26.10;95.10
21744;DHT22;11034;48.556;9.342;2023-07-22T10:14:51;26.00;95.60
21744;DHT22;11034;48.556;9.342;2023-07-22T10:17:19;25.90;95.50
21744;DHT22;11034;48.556;9.342;2023-07-22T10:19:50;25.50;95.80
21744;DHT22;11034;48.556;9.342;2023-07-22T10:22:19;25.00;97.30
21744;DHT22;11034;48.556;9.342;2023-07-22T10:24:47;24.80;96.80
21744;DHT22;11034;48.556;9.342;2023-07-22T10:27:17;24.60;97.30
21744;DHT22;11034;48.556;9.342;2023-07-22T10:29:46;24.60;97.00
21744;DHT22;11034;48.556;9.342;2023-07-22T10:32:14;24.80;96.90
21744;DHT22;11034;48.556;9.342;2023-07-22T10:34:43;25.10;96.00
21744;DHT22;11034;48.556;9.342;2023-07-22T10:37:13;25.40;96.70
21744;DHT22;11034;48.556;9.342;2023-07-22T10:39:41;25.80;96.80
21744;DHT22;11034;48.556;9.342;2023-07-22T10:42:09;26.00;96.10
21744;DHT22;11034;48.556;9.342;2023-07-22T10:44:51;25.60;96.50
21744;DHT22;11034;48.556;9.342;2023-07-22T10:47:31;25.70;97.80
21744;DHT22;11034;48.556;9.342;2023-07-22T10:50:06;26.00;96.80
21744;DHT22;11034;48.556;9.342;2023-07-22T10:52:44;26.20;96.80
21744;DHT22;11034;48.556;9.342;2023-07-22T10:55:17;26.20;95.00
21744;DHT22;11034;48.556;9.342;2023-07-22T10:57:49;26.10;95.40
21744;DHT22;11034;48.556;9.342;2023-07-22T11:00:18;25.80;96.80
21744;DHT22;11034;48.556;9.342;2023-07-22T11:02:47;25.70;96.90
21744;DHT22;11034;48.556;9.342;2023-07-22T11:05:49;25.60;96.50
21744;DHT22;11034;48.556;9.342;2023-07-22T11:08:35;25.60;96.80
21744;DHT22;11034;48.556;9.342;2023-07-22T11:11:04;26.00;96.70
21744;DHT22;11034;48.556;9.342;2023-07-22T11:13:37;26.10;95.90
21744;DHT22;11034;48.556;9.342;2023-07-22T11:16:10;26.20;95.80
21744;DHT22;11034;48.556;9.342;2023-07-22T11:18:39;26.10;95.90
21744;DHT22;11034;48.556;9.342;2023-07-22T11:21:08;25.40;96.20
21744;DHT22;11034;48.556;9.342;2023-07-22T11:23:38;25.10;96.30
21744;DHT22;11034;48.556;9.342;2023-07-22T11:26:06;25.00;96.90
21744;DHT22;11034;48.556;9.342;2023-07-22T11:28:34;24.80;97.00
21744;DHT22;11034;48.556;9.342;2023-07-22T11:31:02;24.50;97.90
21744;DHT22;11034;48.556;9.342;2023-07-22T11:33:38;24.70;98.10
21744;DHT22;11034;48.556;9.342;2023-07-22T11:36:06;24.90;97.50
21744;DHT22;11034;48.556;9.342;2023-07-22T11:38:35;24.70;97.50
21744;DHT22;11034;48.556;9.342;2023-07-22T11:41:04;24.70;98.30
21744;DHT22;11034;48.556;9.342;2023-07-22T11:43:32;24.60;98.10
21744;DHT22;11034;48.556;9.342;2023-07-22T11:46:01;24.10;98.00
21744;DHT22;11034;48.556;9.342;2023-07-22T11:48:32;23.80;99.00
21744;DHT22;11034;48.556;9.342;2023-07-22T11:51:00;23.60;99.70
21744;DHT22;11034;48.556;9.342;2023-07-22T11:53:29;24.00;99.10
21744;DHT22;11034;48.556;9.342;2023-07-22T11:55:57;24.50;98.90
21744;DHT22;11034;48.556;9.342;2023-07-22T11:58:28;25.10;97.40
21744;DHT22;11034;48.556;9.342;2023-07-22T12:01:06;25.70;97.20
21744;DHT22;11034;48.556;9.342;2023-07-22T12:03:35;25.90;96.60
21744;DHT22;11034;48.556;9.342;2023-07-22T12:06:03;25.70;96.20
21744;DHT22;11034;48.556;9.342;2023-07-22T12:08:32;25.50;96.50
21744;DHT22;11034;48.556;9.342;2023-07-22T12:11:00;25.20;96.50
21744;DHT22;11034;48.556;9.342;2023-07-22T12:13:35;25.10;96.90
21744;DHT22;11034;48.556;9.342;2023-07-22T12:16:05;24.90;96.80
21744;DHT22;11034;48.556;9.342;2023-07-22T12:18:43;25.10;96.70
21744;DHT22;11034;48.556;9.342;2023-07-22T12:21:11;25.40;96.50
21744;DHT22;11034;48.556;9.342;2023-07-22T12:23:45;25.40;96.70
21744;DHT22;11034;48.556;9.342;2023-07-22T12:26:13;25.30;96.50
21744;DHT22;11034;48.556;9.342;2023-07-22T12:28:43;25.40;95.90
21744;DHT22;11034;48.556;9.342;2023-07-22T12:31:11;25.40;96.10
21744;DHT22;11034;48.556;9.342;2023-07-22T12:33:39;25.30;96.70
21744;DHT22;11034;48.556;9.342;2023-07-22T12:36:09;25.50;96.40
21744;DHT22;11034;48.556;9.342;2023-07-22T12:38:37;25.80;96.90
21744;DHT22;11034;48.556;9.342;2023-07-22T12:41:06;26.30;95.70
21744;DHT22;11034;48.556;9.342;2023-07-22T12:43:34;26.40;95.60
21744;DHT22;11034;48.556;9.342;2023-07-22T12:46:06;26.10;94.90
21744;DHT22;11034;48.556;9.342;2023-07-22T12:48:35;26.20;95.30
21744;DHT22;11034;48.556;9.342;2023-07-22T12:51:04;26.20;95.30
21744;DHT22;11034;48.556;9.342;2023-07-22T12:53:33;26.50;94.40
21744;DHT22;11034;48.556;9.342;2023-07-22T12:56:01;26.50;94.20
21744;DHT22;11034;48.556;9.342;2023-07-22T12:58:30;26.20;94.70
21744;DHT22;11034;48.556;9.342;2023-07-22T13:00:58;26.10;94.80
21744;DHT22;11034;48.556;9.342;2023-07-22T13:03:28;26.20;94.30
21744;DHT22;11034;48.556;9.342;2023-07-22T13:05:57;26.00;94.90
21744;DHT22;11034;48.556;9.342;2023-07-22T13:08:25;26.10;95.00
21744;DHT22;11034;48.556;9.342;2023-07-22T13:10:53;26.00;95.50
21744;DHT22;11034;48.556;9.342;2023-07-22T13:13:21;26.10;95.60
21744;DHT22;11034;48.556;9.342;2023-07-22T13:15:49;26.20;95.50
21744;DHT22;11034;48.556;9.342;2023-07-22T13:18:17;26.30;95.20
21744;DHT22;11034;48.556;9.342;2023-07-22T13:20:46;26.10;95.10
21744;DHT22;11034;48.556;9.342;2023-07-22T13:23:14;25.70;95.50
21744;DHT22;11034;48.556;9.342;2023-07-22T13:25:42;25.70;95.10
21744;DHT22;11034;48.556;9.342;2023-07-22T13:28:10;25.70;95.60
21744;DHT22;11034;48.556;9.342;2023-07-22T13:30:38;25.70;95.70
21744;DHT22;11034;48.556;9.342;2023-07-22T13:33:06;25.70;95.50
21744;DHT22;11034;48.556;9.342;2023-07-22T13:35:34;25.80;95.60
21744;DHT22;11034;48.556;9.342;2023-07-22T13:38:04;26.00;95.70
21744;DHT22;11034;48.556;9.342;2023-07-22T13:40:32;26.40;95.10
21744;DHT22;11034;48.556;9.342;2023-07-22T13:43:00;26.50;94.50
21744;DHT22;11034;48.556;9.342;2023-07-22T13:45:28;26.40;94.70
21744;DHT22;11034;48.556;9.342;2023-07-22T13:47:56;26.50;94.80
21744;DHT22;11034;48.556;9.342;2023-07-22T13:50:24;26.50;94.50
21744;DHT22;11034;48.556;9.342;2023-07-22T13:52:52;26.70;94.70
21744;DHT22;11034;48.556;9.342;2023-07-22T13:55:22;26.50;95.40
21744;DHT22;11034;48.556;9.342;2023-07-22T13:57:52;26.30;94.80
21744;DHT22;11034;48.556;9.342;2023-07-22T14:00:20;26.10;95.40
21744;DHT22;11034;48.556;9.342;2023-07-22T14:02:49;25.80;94.60
21744;DHT22;11034;48.556;9.342;2023-07-22T14:05:17;25.70;95.40
21744;DHT22;11034;48.556;9.342;2023-07-22T14:07:45;25.90;95.20
21744;DHT22;11034;48.556;9.342;2023-07-22T14:10:13;26.20;95.30
21744;DHT22;11034;48.556;9.342;2023-07-22T14:12:43;26.60;94.50
21744;DHT22;11034;48.556;9.342;2023-07-22T14:15:11;26.70;94.40
21744;DHT22;11034;48.556;9.342;2023-07-22T14:17:39;26.60;94.20
21744;DHT22;11034;48.556;9.342;2023-07-22T14:20:08;26.70;93.90
21744;DHT22;11034;48.556;9.342;2023-07-22T14:22:36;26.90;94.00
21744;DHT22;11034;48.556;9.342;2023-07-22T14:25:05;26.50;93.60
21744;DHT22;11034;48.556;9.342;2023-07-22T14:27:33;26.40;94.10
21744;DHT22;11034;48.556;9.342;2023-07-22T14:30:03;26.20;95.10
21744;DHT22;11034;48.556;9.342;2023-07-22T14:32:32;26.10;94.00
21744;DHT22;11034;48.556;9.342;2023-07-22T14:35:00;25.90;93.90
21744;DHT22;11034;48.556;9.342;2023-07-22T14:37:29;26.10;94.30
21744;DHT22;11034;48.556;9.342;2023-07-22T14:39:57;26.20;93.50
21744;DHT22;11034;48.556;9.342;2023-07-22T14:42:25;26.40;93.90
21744;DHT22;11034;48.556;9.342;2023-07-22T14:44:53;26.40;94.00
21744;DHT22;11034;48.556;9.342;2023-07-22T14:47:23;26.30;93.50
21744;DHT22;11034;48.556;9.342;2023-07-22T14:49:51;26.20;93.80
21744;DHT22;11034;48.556;9.342;2023-07-22T14:52:19;26.10;93.10
21744;DHT22;11034;48.556;9.342;2023-07-22T14:54:48;26.00;93.50
21744;DHT22;11034;48.556;9.342;2023-07-22T14:57:17;25.90;93.60
21744;DHT22;11034;48.556;9.342;2023-07-22T14:59:45;26.00;94.10
21744;DHT22;11034;48.556;9.342;2023-07-22T15:02:13;26.10;93.20
21744;DHT22;11034;48.556;9.342;2023-07-22T15:04:43;26.20;93.50
21744;DHT22;11034;48.556;9.342;2023-07-22T15:07:11;26.10;93.50
21744;DHT22;11034;48.556;9.342;2023-07-22T15:09:39;26.10;92.80
21744;DHT22;11034;48.556;9.342;2023-07-22T15:12:07;26.10;92.90
21744;DHT22;11034;48.556;9.342;2023-07-22T15:14:36;26.10;92.90
21744;DHT22;11034;48.556;9.342;2023-07-22T15:17:05;26.10;92.80
21744;DHT22;11034;48.556;9.342;2023-07-22T15:19:33;25.90;92.50
21744;DHT22;11034;48.556;9.342;2023-07-22T15:22:02;25.90;93.10
21744;DHT22;11034;48.556;9.342;2023-07-22T15:24:30;26.00;92.70
21744;DHT22;11034;48.556;9.342;2023-07-22T15:26:59;26.10;92.10
21744;DHT22;11034;48.556;9.342;2023-07-22T15:29:27;26.10;91.90
21744;DHT22;11034;48.556;9.342;2023-07-22T15:31:55;26.30;91.40
21744;DHT22;11034;48.556;9.342;2023-07-22T15:34:23;26.40;91.20
21744;DHT22;11034;48.556;9.342;2023-07-22T15:36:51;26.40;91.60
21744;DHT22;11034;48.556;9.342;2023-07-22T15:39:20;26.30;91.70
21744;DHT22;11034;48.556;9.342;2023-07-22T15:41:48;26.20;91.80